Time;durP1;ratioP1;P1;durP2;ratioP2;P2;SDS_P1;SDS_P2;PMS_P1;PMS_P2;Temp;Humidity;BMP_temperature;BMP_pressure;BME280_temperature;BME280_humidity;BME280_pressure;Samples;Min_cycle;Max_cycle;Signal;HPM_P1;HPM_P2
2022/01/22 00:00:11;;;;;;;14.27;6.67;;;;;;;3.49;96.45;103232.28;6439505;23;20013;-73
2022/01/22 00:02:43;;;;;;;17.85;6.88;;;;;;;3.46;96.38;103221.00;6437450;23;20005;-77
2022/01/22 00:05:17;;;;;;;16.30;7.47;;;;;;;3.48;96.33;103218.50;6436582;23;20012;-74
2022/01/22 00:07:49;;;;;;;19.13;7.15;;;;;;;3.48;96.17;103228.81;6434218;23;20272;-75
2022/01/22 00:10:23;;;;;;;15.75;6.18;;;;;;;3.46;96.45;103221.00;6435485;23;20324;-75
2022/01/22 00:15:33;;;;;;;13.35;6.68;;;;;;;3.45;96.39;103214.06;6435876;23;20040;-75
2022/01/22 00:18:04;;;;;;;15.80;6.82;;;;;;;3.47;96.55;103215.03;6434269;23;20012;-77
2022/01/22 00:20:38;;;;;;;19.13;8.30;;;;;;;3.45;96.86;103214.06;6433539;23;20005;-73
2022/01/22 00:23:10;;;;;;;15.40;6.82;;;;;;;3.46;96.35;103215.84;6433031;23;20021;-75
2022/01/22 00:25:42;;;;;;;15.43;7.43;;;;;;;3.46;96.35;103204.63;6433638;23;20005;-75
2022/01/22 00:28:14;;;;;;;19.52;6.63;;;;;;;3.44;96.40;103212.28;6433819;23;20009;-73
2022/01/22 00:30:45;;;;;;;19.33;7.03;;;;;;;3.45;96.81;103210.59;6433096;23;20847;-75
2022/01/22 00:33:16;;;;;;;15.33;6.43;;;;;;;3.46;96.87;103202.97;6434156;23;20063;-75
2022/01/22 00:35:48;;;;;;;14.93;6.57;;;;;;;3.45;96.58;103196.00;6433892;23;20016;-74
2022/01/22 00:38:20;;;;;;;15.55;6.53;;;;;;;3.46;96.71;103197.81;6433679;23;20039;-74
2022/01/22 00:40:51;;;;;;;10.97;5.97;;;;;;;3.46;96.76;103196.88;6433961;23;20008;-74
2022/01/22 00:43:23;;;;;;;19.60;7.53;;;;;;;3.44;96.87;103188.19;6433377;23;20016;-77
2022/01/22 00:45:55;;;;;;;17.63;7.20;;;;;;;3.44;97.16;103199.38;6433556;23;20028;-76
2022/01/22 00:48:26;;;;;;;16.73;6.77;;;;;;;3.43;96.97;103186.41;6433932;23;20060;-74
2022/01/22 00:50:59;;;;;;;16.00;6.70;;;;;;;3.44;96.85;103186.50;6433153;23;20009;-74
2022/01/22 00:53:32;;;;;;;15.32;6.85;;;;;;;3.46;96.82;103196.88;6432822;23;20431;-75
2022/01/22 00:56:03;;;;;;;19.13;7.65;;;;;;;3.46;96.84;103191.72;6405975;23;20426;-75
2022/01/22 00:58:35;;;;;;;14.73;7.20;;;;;;;3.48;97.08;103192.72;6433865;23;20016;-74
2022/01/22 01:01:06;;;;;;;21.83;7.63;;;;;;;3.49;96.90;103202.22;6434333;23;20063;-73
2022/01/22 01:03:38;;;;;;;16.03;7.87;;;;;;;3.48;97.02;103205.63;6433276;23;20005;-74
2022/01/22 01:06:09;;;;;;;18.03;7.30;;;;;;;3.48;96.94;103210.78;6407301;23;20005;-75
2022/01/22 01:08:43;;;;;;;18.67;7.77;;;;;;;3.49;97.10;103212.53;6433388;23;20009;-72
2022/01/22 01:11:16;;;;;;;18.65;7.30;;;;;;;3.51;97.16;103215.19;6433715;23;20392;-72
2022/01/22 01:13:54;;;;;;;17.35;8.07;;;;;;;3.51;96.77;103213.53;6433968;23;20009;-74
2022/01/22 01:33:22;;;;;;;14.75;7.88;;;;;;;3.54;97.03;103205.06;6433129;23;20391;-74
2022/01/22 01:35:53;;;;;;;17.90;9.07;;;;;;;3.56;97.07;103208.59;6432785;23;20048;-75
2022/01/22 01:38:25;;;;;;;12.70;8.80;;;;;;;3.55;96.89;103210.31;6433983;23;20021;-75
2022/01/22 01:41:05;;;;;;;17.20;10.53;;;;;;;3.55;97.27;103205.13;6435172;23;19997;-75
2022/01/22 01:43:38;;;;;;;22.05;10.85;;;;;;;3.56;97.22;103208.59;6436028;23;20005;-72
2022/01/22 01:46:11;;;;;;;16.77;9.60;;;;;;;3.55;97.21;103220.63;6435598;23;20005;-75
2022/01/22 01:48:43;;;;;;;15.23;8.93;;;;;;;3.55;97.40;103212.88;6435892;23;20005;-75
2022/01/22 01:51:15;;;;;;;16.35;10.02;;;;;;;3.52;97.54;103211.81;6435158;23;20084;-75
2022/01/22 01:53:57;;;;;;;16.43;10.20;;;;;;;3.52;97.98;103210.13;6435692;23;20091;-73
2022/01/22 01:59:19;;;;;;;24.13;11.55;;;;;;;3.52;98.47;103212.72;6435877;23;20017;-75
2022/01/22 02:01:51;;;;;;;18.87;11.77;;;;;;;3.53;98.54;103204.19;6435095;23;20001;-73
2022/01/22 02:04:23;;;;;;;16.38;10.45;;;;;;;3.52;98.54;103202.38;6434471;23;20013;-73
2022/01/22 02:06:56;;;;;;;18.83;12.07;;;;;;;3.53;98.58;103205.88;6435125;23;20457;-75
2022/01/22 02:09:28;;;;;;;20.50;12.20;;;;;;;3.53;98.86;103205.88;6383284;23;20019;-73
2022/01/22 02:12:06;;;;;;;26.05;12.70;;;;;;;3.52;99.09;103207.53;6434638;23;20005;-73
2022/01/22 02:25:41;;;;;;;22.83;13.85;;;;;;;3.56;99.73;103204.34;6435773;23;20012;-75
2022/01/22 02:28:13;;;;;;;27.63;14.80;;;;;;;3.55;99.67;103196.53;6435969;23;20009;-73
2022/01/22 02:30:48;;;;;;;24.40;14.73;;;;;;;3.56;99.83;103194.03;6435386;23;20031;-75
2022/01/22 02:33:32;;;;;;;25.83;15.52;;;;;;;3.57;100.00;103198.38;6435235;23;20249;-74
2022/01/22 02:36:18;;;;;;;25.25;16.17;;;;;;;3.53;100.00;103199.03;6434553;23;20020;-74
2022/01/22 02:38:56;;;;;;;27.27;19.02;;;;;;;3.51;100.00;103203.22;6434890;23;20148;-73
2022/01/22 02:41:28;;;;;;;30.88;19.02;;;;;;;3.50;100.00;103201.44;6434520;23;20008;-74
2022/01/22 02:44:00;;;;;;;24.27;18.93;;;;;;;3.47;100.00;103199.56;6434773;23;20012;-76
2022/01/22 02:46:32;;;;;;;25.33;21.23;;;;;;;3.45;100.00;103198.59;6435299;23;20005;-76
2022/01/22 02:49:04;;;;;;;31.33;22.38;;;;;;;3.44;100.00;103207.13;6434477;23;20005;-73
2022/01/22 02:51:35;;;;;;;30.83;19.80;;;;;;;3.44;100.00;103214.84;6434245;23;20089;-74
2022/01/22 02:54:07;;;;;;;37.63;21.20;;;;;;;3.46;100.00;103212.34;6435343;23;20064;-74
2022/01/22 02:56:38;;;;;;;33.17;20.53;;;;;;;3.46;100.00;103208.13;6434776;23;20001;-75
2022/01/22 02:59:09;;;;;;;32.37;21.47;;;;;;;3.45;100.00;103208.91;6434869;23;20001;-74
2022/01/22 03:01:41;;;;;;;28.17;19.23;;;;;;;3.51;100.00;103212.63;6436188;23;20036;-75
2022/01/22 03:04:12;;;;;;;35.57;22.60;;;;;;;3.49;100.00;103215.13;6434793;23;20001;-76
2022/01/22 03:06:44;;;;;;;34.13;20.77;;;;;;;3.50;100.00;103214.31;6433601;23;20427;-75
2022/01/22 03:09:18;;;;;;;28.50;21.17;;;;;;;3.49;100.00;103212.53;6434180;23;20005;-73
2022/01/22 03:23:06;;;;;;;36.60;21.67;;;;;;;3.48;100.00;103210.78;6407706;23;20059;-75
2022/01/22 03:28:18;;;;;;;36.08;22.42;;;;;;;3.46;100.00;103205.53;6434233;23;20008;-73
2022/01/22 03:30:50;;;;;;;29.95;23.42;;;;;;;3.49;100.00;103209.06;6407127;23;20005;-72
2022/01/22 03:33:22;;;;;;;30.27;22.87;;;;;;;3.50;100.00;103211.75;6433390;23;20445;-73
2022/01/22 03:35:56;;;;;;;33.30;24.45;;;;;;;3.50;100.00;103213.44;6433705;23;20494;-74
2022/01/22 03:38:27;;;;;;;38.28;26.05;;;;;;;3.50;100.00;103208.28;6434061;23;20013;-75
2022/01/22 03:40:58;;;;;;;34.70;24.00;;;;;;;3.52;100.00;103210.13;6433978;23;20117;-72
2022/01/22 03:43:30;;;;;;;34.17;23.33;;;;;;;3.53;100.00;103211.03;6433819;23;20009;-73
2022/01/22 03:46:01;;;;;;;33.93;24.07;;;;;;;3.52;100.00;103211.81;6433537;23;20007;-73
2022/01/22 03:48:33;;;;;;;31.43;24.70;;;;;;;3.51;100.00;103218.69;6433760;23;20083;-74
2022/01/22 03:51:04;;;;;;;40.50;26.83;;;;;;;3.51;100.00;103218.69;6433931;23;20414;-73
2022/01/22 03:53:36;;;;;;;36.57;25.13;;;;;;;3.55;100.00;103206.84;6433423;23;20016;-73
2022/01/22 03:56:09;;;;;;;41.97;27.80;;;;;;;3.56;100.00;103216.34;6433131;23;20005;-75
2022/01/22 03:58:44;;;;;;;38.75;29.23;;;;;;;3.55;100.00;103207.72;6433308;23;20075;-75
2022/01/22 04:03:57;;;;;;;42.90;31.27;;;;;;;3.57;100.00;103203.53;6443502;23;20040;-73
2022/01/22 04:07:05;;;;;;;43.23;29.60;;;;;;;3.56;100.00;103208.59;6433869;23;20016;-74
2022/01/22 04:09:29;;;;;;;47.78;31.67;;;;;;;3.55;100.00;103202.56;6432798;23;20253;-73
2022/01/22 04:12:01;;;;;;;41.40;33.60;;;;;;;3.55;100.00;103207.72;6432694;23;20012;-72
2022/01/22 04:14:35;;;;;;;50.63;32.58;;;;;;;3.56;100.00;103206.94;6433345;23;20011;-73
2022/01/22 04:17:21;;;;;;;43.00;31.55;;;;;;;3.56;100.00;103211.19;6433497;23;20012;-73
2022/01/22 04:25:36;;;;;;;45.03;35.28;;;;;;;3.57;100.00;103203.53;6433195;23;20040;-73
2022/01/22 04:28:07;;;;;;;50.92;35.50;;;;;;;3.59;100.00;103198.44;6433189;23;20705;-75
2022/01/22 04:30:39;;;;;;;56.47;38.30;;;;;;;3.56;100.00;103206.94;6433554;23;20052;-75
2022/01/22 04:33:10;;;;;;;58.23;37.43;;;;;;;3.57;100.00;103200.94;6433082;23;20030;-73
2022/01/22 04:35:41;;;;;;;53.60;36.60;;;;;;;3.58;100.00;103209.59;6432626;23;20316;-73
2022/01/22 04:38:13;;;;;;;52.17;37.23;;;;;;;3.58;100.00;103204.44;6432851;23;20036;-74
2022/01/22 04:40:44;;;;;;;52.07;36.83;;;;;;;3.59;100.00;103203.59;6433264;23;20005;-73
2022/01/22 04:43:16;;;;;;;53.63;36.70;;;;;;;3.61;100.00;103196.88;6406355;23;20009;-73
2022/01/22 04:46:11;;;;;;;48.03;35.70;;;;;;;3.62;100.00;103209.84;6433373;23;20008;-74
2022/01/22 04:49:04;;;;;;;52.55;36.13;;;;;;;3.64;100.00;103207.34;6432718;23;20080;-75
2022/01/22 04:57:17;;;;;;;57.50;37.80;;;;;;;3.66;100.00;103205.75;6432474;23;20016;-72
2022/01/22 04:59:48;;;;;;;;;;;;;;;3.71;100.00;103208.56;6433484;23;20392;-73
2022/01/22 05:02:20;;;;;;;57.55;35.67;;;;;;;3.70;100.00;103207.66;6433398;23;19919;-73
2022/01/22 05:04:51;;;;;;;55.37;37.03;;;;;;;3.72;100.00;103210.31;6432631;23;20055;-73
2022/01/22 05:07:23;;;;;;;51.83;37.47;;;;;;;3.71;100.00;103209.44;6432609;23;20005;-72
2022/01/22 05:09:54;;;;;;;52.73;37.10;;;;;;;3.71;100.00;103201.72;6432864;23;20012;-72
2022/01/22 05:12:26;;;;;;;51.50;37.57;;;;;;;3.73;100.00;103199.22;6432760;23;20186;-73
2022/01/22 05:14:57;;;;;;;55.17;36.60;;;;;;;3.75;100.00;103206.25;6431828;23;20056;-74
2022/01/22 05:17:31;;;;;;;52.33;35.67;;;;;;;3.77;100.00;103198.59;6432802;23;20445;-72
2022/01/22 05:25:24;;;;;;;52.10;35.72;;;;;;;3.76;100.00;103207.13;6443190;23;20024;-74
2022/01/22 05:28:47;;;;;;;48.13;35.50;;;;;;;3.78;100.00;103195.19;6432726;23;20234;-74
2022/01/22 05:30:55;;;;;;;54.65;36.42;;;;;;;3.79;100.00;103205.59;6432055;23;20024;-75
2022/01/22 05:36:55;;;;;;;55.40;38.42;;;;;;;3.77;100.00;103203.75;6433186;23;20072;-74
2022/01/22 05:39:10;;;;;;;49.53;37.88;;;;;;;3.76;100.00;103195.09;6432469;23;20013;-73
2022/01/22 05:41:41;;;;;;;54.05;36.97;;;;;;;3.77;100.00;103204.63;6433273;23;20132;-73
2022/01/22 05:44:13;;;;;;;51.37;37.40;;;;;;;3.76;100.00;103202.84;6432415;23;20033;-74
2022/01/22 05:46:44;;;;;;;51.43;37.20;;;;;;;3.76;100.00;103204.53;6432945;23;20009;-73
2022/01/22 05:49:16;;;;;;;54.50;37.50;;;;;;;3.78;100.00;103198.69;6432650;23;20016;-72
2022/01/22 05:51:49;;;;;;;47.57;36.63;;;;;;;3.77;100.00;103202.03;6432825;23;20005;-73
2022/01/22 05:59:51;;;;;;;45.80;35.00;;;;;;;3.80;100.00;103206.47;6432009;23;20116;-72
2022/01/22 06:02:23;;;;;;;47.07;33.13;;;;;;;3.81;100.00;103211.72;6432853;23;20454;-73
2022/01/22 06:04:54;;;;;;;54.37;36.70;;;;;;;3.82;100.00;103202.31;6432422;23;20001;-73
2022/01/22 06:07:25;;;;;;;50.73;35.93;;;;;;;3.82;100.00;103210.91;6432822;23;20100;-73
2022/01/22 06:15:02;;;;;;;48.60;34.17;;;;;;;3.83;100.00;103215.28;6436755;23;20048;-76
2022/01/22 06:17:34;;;;;;;54.53;34.83;;;;;;;3.86;100.00;103214.53;6439585;23;20005;-76
2022/01/22 06:20:06;;;;;;;57.27;34.97;;;;;;;3.88;100.00;103212.06;6441149;23;20009;-76
2022/01/22 06:22:38;;;;;;;54.47;37.15;;;;;;;3.90;100.00;103210.47;6440487;23;20005;-76
2022/01/22 06:25:09;;;;;;;50.53;34.10;;;;;;;3.90;100.00;103210.47;6440360;23;20059;-73
2022/01/22 06:27:40;;;;;;;55.90;34.03;;;;;;;3.90;100.00;103206.19;6441537;23;20005;-74
2022/01/22 06:30:12;;;;;;;53.53;35.00;;;;;;;3.91;100.00;103213.13;6441791;23;20036;-73
2022/01/22 06:32:43;;;;;;;56.33;34.57;;;;;;;3.89;100.00;103206.97;6415655;23;20383;-73
2022/01/22 06:35:15;;;;;;;50.80;35.37;;;;;;;3.88;100.00;103207.78;6441603;23;20016;-75
2022/01/22 06:37:46;;;;;;;61.60;35.57;;;;;;;3.90;100.00;103218.19;6442200;23;20005;-74
2022/01/22 06:42:49;;;;;;;56.27;35.33;;;;;;;3.92;100.00;103214.00;6452586;23;20016;-76
2022/01/22 06:45:20;;;;;;;48.07;34.80;;;;;;;3.93;100.00;103221.84;6441095;23;20009;-73
2022/01/22 06:47:52;;;;;;;56.33;32.83;;;;;;;3.95;100.00;103225.38;6441757;23;20367;-75
2022/01/22 06:50:24;;;;;;;55.57;33.20;;;;;;;3.97;100.00;103230.63;6441943;23;20016;-73
2022/01/22 06:52:57;;;;;;;53.42;31.92;;;;;;;3.96;100.00;103224.56;6441193;23;20016;-76
2022/01/22 06:58:23;;;;;;;41.63;30.52;;;;;;;4.01;100.00;103232.56;6377104;23;20452;-73
2022/01/22 07:00:55;;;;;;;46.07;31.57;;;;;;;4.03;100.00;103240.41;6407407;23;20039;-72
2022/01/22 07:03:26;;;;;;;43.17;30.03;;;;;;;4.05;100.00;103236.19;6407739;23;20467;-73
2022/01/22 07:05:57;;;;;;;45.53;30.63;;;;;;;4.07;100.00;103239.75;6407985;23;20013;-73
2022/01/22 07:08:29;;;;;;;43.83;30.47;;;;;;;4.07;100.00;103232.00;6407302;23;20012;-73
2022/01/22 07:11:01;;;;;;;51.33;32.10;;;;;;;4.07;100.00;103242.31;6407698;23;20081;-74
2022/01/22 07:13:33;;;;;;;52.10;31.48;;;;;;;4.09;100.00;103246.78;6407643;23;20012;-74
2022/01/22 07:16:05;;;;;;;44.63;29.25;;;;;;;4.08;100.00;103247.56;6407002;23;20009;-74
2022/01/22 07:18:37;;;;;;;44.80;30.92;;;;;;;4.08;100.00;103257.00;6407491;23;20214;-73
2022/01/22 07:21:14;;;;;;;45.63;28.53;;;;;;;4.09;100.00;103261.34;6382745;23;20061;-74
2022/01/22 07:26:18;;;;;;;45.75;29.20;;;;;;;4.13;100.00;103273.63;6407430;23;20502;-73
2022/01/22 07:28:49;;;;;;;44.80;28.30;;;;;;;4.14;100.00;103276.28;6407317;23;20009;-74
2022/01/22 07:31:22;;;;;;;45.67;26.20;;;;;;;4.15;100.00;103270.34;6406868;23;20021;-73
2022/01/22 07:33:54;;;;;;;43.53;30.65;;;;;;;4.16;100.00;103271.22;6407067;23;20061;-76
2022/01/22 07:36:25;;;;;;;43.10;29.57;;;;;;;4.18;100.00;103269.59;6438804;23;20028;-74
2022/01/22 07:38:56;;;;;;;48.77;29.67;;;;;;;4.19;100.00;103272.25;6436965;23;20009;-76
2022/01/22 07:41:28;;;;;;;48.53;30.73;;;;;;;4.20;100.00;103274.03;6440636;23;20407;-75
2022/01/22 07:43:59;;;;;;;40.17;27.83;;;;;;;4.23;100.00;103277.59;6440282;23;20009;-76
2022/01/22 07:46:30;;;;;;;43.03;28.07;;;;;;;4.23;100.00;103280.16;6440225;23;20101;-75
2022/01/22 07:49:05;;;;;;;39.60;28.70;;;;;;;4.25;100.00;103284.63;6439756;23;20036;-77
2022/01/22 07:51:36;;;;;;;45.65;30.30;;;;;;;4.25;100.00;103278.56;6439467;23;20193;-76
2022/01/22 07:54:07;;;;;;;54.60;29.77;;;;;;;4.26;100.00;103275.19;6413436;23;20038;-75
2022/01/22 07:56:39;;;;;;;42.33;27.03;;;;;;;4.28;100.00;103282.22;6440258;23;20016;-76
2022/01/22 07:59:10;;;;;;;44.93;28.37;;;;;;;4.27;100.00;103270.09;6439816;23;20001;-76
2022/01/22 08:01:41;;;;;;;49.03;27.33;;;;;;;4.29;100.00;103272.75;6440000;23;20009;-76
2022/01/22 08:04:13;;;;;;;54.37;29.27;;;;;;;4.31;100.00;103272.00;6439358;23;20071;-76
2022/01/22 08:06:44;;;;;;;47.43;28.17;;;;;;;4.31;100.00;103276.31;6439627;23;20067;-76
2022/01/22 08:09:15;;;;;;;45.43;28.07;;;;;;;4.31;100.00;103265.97;6439847;23;20015;-76
2022/01/22 08:11:48;;;;;;;47.37;27.60;;;;;;;4.32;100.00;103273.81;6440002;23;20009;-74
2022/01/22 08:14:19;;;;;;;47.42;28.83;;;;;;;4.35;100.00;103273.09;6439898;23;20362;-77
2022/01/22 08:16:51;;;;;;;39.17;25.70;;;;;;;4.35;100.00;103271.38;6439645;23;20013;-77
2022/01/22 08:19:23;;;;;;;40.37;25.33;;;;;;;4.38;100.00;103265.50;6439849;23;20009;-76
2022/01/22 08:21:54;;;;;;;38.08;25.40;;;;;;;4.41;100.00;103267.34;6440062;23;20005;-77
2022/01/22 08:24:27;;;;;;;40.73;25.60;;;;;;;4.44;100.00;103262.34;6440075;23;20013;-76
2022/01/22 08:29:44;;;;;;;43.75;25.55;;;;;;;4.49;100.00;103274.69;6449587;23;20186;-76
2022/01/22 08:37:37;;;;;;;35.90;24.02;;;;;;;4.57;100.00;103275.06;6439326;23;20009;-75
2022/01/22 08:40:10;;;;;;;44.03;28.77;;;;;;;4.60;100.00;103272.66;6413224;23;20045;-75
2022/01/22 08:42:42;;;;;;;36.03;25.42;;;;;;;4.61;100.00;103274.44;6440728;23;20009;-74
2022/01/22 08:45:13;;;;;;;44.87;25.20;;;;;;;4.66;100.00;103272.97;6441017;23;20020;-75
2022/01/22 08:47:44;;;;;;;33.30;22.57;;;;;;;4.70;100.00;103264.59;6440394;23;20008;-75
2022/01/22 08:50:16;;;;;;;36.43;21.23;;;;;;;4.72;100.00;103270.72;6439419;23;20001;-77
2022/01/22 08:52:47;;;;;;;33.20;22.20;;;;;;;4.76;100.00;103269.16;6439838;23;20005;-75
2022/01/22 08:55:19;;;;;;;40.77;23.13;;;;;;;4.82;100.00;103266.03;6440368;23;20529;-76
2022/01/22 08:57:51;;;;;;;36.53;21.60;;;;;;;4.84;100.00;103274.72;6439969;23;20001;-75
2022/01/22 09:00:22;;;;;;;34.00;22.23;;;;;;;4.83;100.00;103278.13;6440745;23;20001;-76
2022/01/22 09:02:54;;;;;;;31.77;22.93;;;;;;;4.89;100.00;103283.59;6440281;23;20005;-76
2022/01/22 09:05:31;;;;;;;33.47;21.00;;;;;;;4.94;100.00;103289.88;6440258;23;20318;-76
2022/01/22 09:08:04;;;;;;;40.33;20.50;;;;;;;4.99;100.00;103285.88;6440206;23;20005;-77
2022/01/22 09:10:35;;;;;;;31.23;20.10;;;;;;;5.04;100.00;103293.81;6439898;23;19997;-76
2022/01/22 09:13:07;;;;;;;31.20;20.23;;;;;;;5.06;100.00;103298.28;6440028;23;20083;-75
2022/01/22 09:15:39;;;;;;;32.83;17.27;;;;;;;5.09;100.00;103310.47;6440220;23;20016;-75
2022/01/22 09:18:11;;;;;;;30.52;18.42;;;;;;;5.11;100.00;103304.56;6439683;23;20088;-76
2022/01/22 09:20:55;;;;;;;30.77;18.65;;;;;;;5.15;100.00;103307.28;6439975;23;20415;-75
2022/01/22 09:23:27;;;;;;;29.52;17.73;;;;;;;5.18;100.00;103303.16;6439889;23;20012;-75
2022/01/22 09:26:00;;;;;;;25.10;17.45;;;;;;;5.22;100.00;103314.56;6439931;23;20020;-76
2022/01/22 09:28:34;;;;;;;30.00;17.10;;;;;;;5.19;100.00;103309.25;6440349;23;20299;-77
2022/01/22 09:31:05;;;;;;;29.50;19.75;;;;;;;5.22;100.00;103302.50;6439854;23;19997;-77
2022/01/22 09:33:38;;;;;;;28.90;17.67;;;;;;;5.23;100.00;103306.88;6440036;23;20442;-77
2022/01/22 09:36:10;;;;;;;29.20;18.40;;;;;;;5.23;100.00;103303.38;6440332;23;20040;-76
2022/01/22 09:38:41;;;;;;;26.87;17.27;;;;;;;5.25;100.00;103309.56;6439823;23;20100;-77
2022/01/22 09:41:17;;;;;;;31.90;19.50;;;;;;;5.30;100.00;103316.72;6439759;23;20001;-77
2022/01/22 09:43:49;;;;;;;33.10;19.05;;;;;;;5.33;100.00;103320.25;6439680;23;20005;-77
2022/01/22 09:46:22;;;;;;;31.97;17.97;;;;;;;5.34;100.00;103338.44;6439808;23;20314;-77
2022/01/22 09:48:55;;;;;;;24.38;17.77;;;;;;;5.30;100.00;103339.09;6440083;23;20236;-76
2022/01/22 09:51:26;;;;;;;;;;;;;;;5.36;100.00;103330.75;6440429;23;20322;-76
2022/01/22 09:53:57;;;;;;;27.42;17.92;;;;;;;5.34;100.00;103334.97;6439762;23;19988;-77
2022/01/22 09:56:31;;;;;;;36.67;19.50;;;;;;;5.30;100.00;103337.41;6439487;23;20128;-77
2022/01/22 09:59:02;;;;;;;28.42;19.02;;;;;;;5.30;100.00;103337.41;6439897;23;20005;-77
2022/01/22 10:01:34;;;;;;;26.30;17.27;;;;;;;5.33;100.00;103331.50;6440908;23;20008;-76
2022/01/22 10:04:07;;;;;;;29.67;18.93;;;;;;;5.31;100.00;103335.69;6441955;23;20013;-77
2022/01/22 10:06:49;;;;;;;29.45;17.55;;;;;;;5.35;100.00;103337.63;6442048;23;20423;-77
2022/01/22 10:09:34;;;;;;;28.77;17.97;;;;;;;5.38;100.00;103339.50;6441754;23;20383;-77
2022/01/22 10:12:06;;;;;;;25.85;16.77;;;;;;;5.36;100.00;103335.94;6441948;23;20005;-78
2022/01/22 10:15:03;;;;;;;27.17;18.90;;;;;;;5.41;100.00;103340.53;6441622;23;20040;-77
2022/01/22 10:17:51;;;;;;;29.70;18.92;;;;;;;5.38;100.00;103335.19;6441742;23;20312;-77
2022/01/22 10:20:27;;;;;;;26.55;18.10;;;;;;;5.40;100.00;103343.91;6449678;23;20418;-78
2022/01/22 10:23:02;;;;;;;32.72;18.95;;;;;;;5.47;100.00;103348.59;6442003;23;20095;-77
2022/01/22 10:25:37;;;;;;;30.58;18.33;;;;;;;5.44;99.93;103338.09;6442008;23;20004;-77
2022/01/22 10:28:14;;;;;;;30.73;19.48;;;;;;;5.42;99.82;103336.22;6441011;23;20308;-74
2022/01/22 10:30:47;;;;;;;32.38;20.65;;;;;;;5.46;99.88;103330.41;6440928;23;19997;-76
2022/01/22 10:33:30;;;;;;;26.08;17.85;;;;;;;5.42;99.48;103334.53;6441629;23;20012;-76
2022/01/22 10:36:14;;;;;;;34.90;22.08;;;;;;;5.42;99.77;103346.59;6440839;23;20017;-76
2022/01/22 10:38:52;;;;;;;33.05;21.02;;;;;;;5.48;99.88;103344.31;6439069;23;20005;-74
2022/01/22 10:41:37;;;;;;;37.70;22.50;;;;;;;5.47;100.00;103335.66;6433351;23;20049;-75
2022/01/22 10:44:15;;;;;;;26.95;19.98;;;;;;;5.43;99.71;103336.31;6433333;23;20083;-75
2022/01/22 10:49:23;;;;;;;36.40;21.50;;;;;;;5.48;100.00;103332.25;6441115;23;20020;-73
2022/01/22 10:51:59;;;;;;;36.63;23.05;;;;;;;5.54;99.86;103348.88;6433538;23;20054;-73
2022/01/22 10:54:35;;;;;;;30.52;20.42;;;;;;;5.50;99.40;103344.38;6433349;23;20520;-74
2022/01/22 10:57:19;;;;;;;32.33;21.95;;;;;;;5.53;99.72;103348.00;6433480;23;20021;-75
2022/01/22 10:59:55;;;;;;;30.92;21.48;;;;;;;5.53;99.60;103349.72;6433920;23;20085;-75
2022/01/22 11:02:34;;;;;;;37.42;24.55;;;;;;;5.58;99.86;103353.41;6434032;23;20080;-74
2022/01/22 11:05:07;;;;;;;36.80;22.10;;;;;;;5.53;99.34;103352.28;6432929;23;20033;-74
2022/01/22 11:07:39;;;;;;;30.67;19.45;;;;;;;5.53;99.08;103350.59;6433762;23;20419;-73
2022/01/22 11:10:10;;;;;;;30.40;21.67;;;;;;;5.58;99.44;103348.22;6433364;23;20005;-74
2022/01/22 11:12:42;;;;;;;36.30;21.07;;;;;;;5.59;99.16;103344.84;6434052;23;20016;-73
2022/01/22 11:15:13;;;;;;;37.27;25.57;;;;;;;5.59;99.05;103339.66;6433245;23;20013;-74
2022/01/22 11:17:46;;;;;;;29.40;20.03;;;;;;;5.59;98.89;103342.25;6433945;23;20019;-73
2022/01/22 11:20:17;;;;;;;29.38;23.27;;;;;;;5.58;98.94;103335.28;6433092;23;20005;-73
2022/01/22 11:22:51;;;;;;;31.97;22.33;;;;;;;5.60;98.76;103328.47;6433745;23;20012;-74
2022/01/22 11:25:24;;;;;;;32.92;20.70;;;;;;;5.60;98.36;103321.63;6433392;23;20331;-73
2022/01/22 11:27:55;;;;;;;31.98;22.13;;;;;;;5.66;98.49;103315.84;6433461;23;20017;-73
2022/01/22 11:30:28;;;;;;;29.90;20.23;;;;;;;5.68;98.02;103319.38;6433608;23;20016;-73
2022/01/22 11:33:12;;;;;;;39.10;27.38;;;;;;;5.72;97.89;103317.84;6433567;23;20028;-74
2022/01/22 11:36:02;;;;;;;25.48;21.65;;;;;;;5.70;97.50;103324.63;6432992;23;20024;-74
2022/01/22 11:38:39;;;;;;;30.85;21.95;;;;;;;5.69;97.92;103328.06;6432840;23;20008;-74
2022/01/22 11:41:16;;;;;;;33.67;23.45;;;;;;;5.68;97.39;103323.69;6433501;23;20010;-74
2022/01/22 11:46:36;;;;;;;32.08;22.67;;;;;;;5.75;97.20;103320.59;6433355;23;20035;-75
2022/01/22 11:49:27;;;;;;;31.92;23.48;;;;;;;5.71;96.99;103316.94;6432940;23;20009;-74
2022/01/22 11:52:08;;;;;;;34.58;23.02;;;;;;;5.75;97.38;103318.00;6432591;23;20009;-74
2022/01/22 11:54:59;;;;;;;30.92;22.38;;;;;;;5.75;97.50;103326.66;6432845;23;20009;-74
2022/01/22 11:57:32;;;;;;;37.40;24.25;;;;;;;5.74;97.43;103317.09;6433026;23;20004;-74
2022/01/22 12:00:17;;;;;;;34.28;24.58;;;;;;;5.77;97.37;103322.41;6432966;23;20144;-74
2022/01/22 12:03:03;;;;;;;43.35;26.58;;;;;;;5.80;97.16;103326.88;6433297;23;20316;-73
2022/01/22 12:05:54;;;;;;;32.50;25.08;;;;;;;5.69;97.28;103317.72;6433185;23;20502;-74
2022/01/22 12:08:26;;;;;;;29.45;23.90;;;;;;;5.72;97.48;103326.50;6433637;23;20467;-75
2022/01/22 12:16:42;;;;;;;35.45;25.35;;;;;;;5.72;97.97;103318.72;6432402;23;20020;-75
2022/01/22 12:19:49;;;;;;;31.13;25.52;;;;;;;5.71;98.04;103310.91;6432110;23;20103;-74
2022/01/22 12:22:34;;;;;;;38.13;25.63;;;;;;;5.67;98.16;103320.22;6432413;23;20384;-72
2022/01/22 12:25:14;;;;;;;34.15;26.40;;;;;;;5.66;98.26;103321.03;6432329;23;20090;-74
2022/01/22 12:27:50;;;;;;;39.15;28.13;;;;;;;5.61;98.80;103319.91;6432375;23;20008;-71
2022/01/22 12:31:00;;;;;;;39.03;25.85;;;;;;;5.59;99.16;103327.59;6432451;23;20031;-73
2022/01/22 12:33:31;;;;;;;39.63;27.00;;;;;;;5.53;99.24;103329.88;6337532;23;20006;-73
2022/01/22 12:36:10;;;;;;;35.60;26.93;;;;;;;5.54;99.70;103330.75;6337565;23;20018;-73
2022/01/22 12:38:50;;;;;;;41.33;28.55;;;;;;;5.53;100.00;103322.13;6337531;23;20085;-73
2022/01/22 12:44:13;;;;;;;;;;;;;;;5.52;100.00;103320.34;6338042;23;20018;-74
2022/01/22 12:46:44;;;;;;;35.03;26.50;;;;;;;5.49;100.00;103315.03;6337544;23;19913;-75
2022/01/22 12:49:16;;;;;;;40.03;30.53;;;;;;;5.48;100.00;103319.31;6337530;23;20101;-75
2022/01/22 12:51:56;;;;;;;36.58;29.65;;;;;;;5.47;100.00;103322.72;6337304;23;20014;-74
2022/01/22 12:54:28;;;;;;;37.40;28.85;;;;;;;5.45;100.00;103329.50;6337069;23;20018;-75
2022/01/22 12:57:11;;;;;;;33.97;27.77;;;;;;;5.47;100.00;103316.66;6337353;23;20126;-74
2022/01/22 12:59:54;;;;;;;39.97;29.15;;;;;;;5.43;100.00;103323.38;6337334;23;20070;-74
2022/01/22 13:02:42;;;;;;;42.40;29.30;;;;;;;5.47;100.00;103327.00;6337234;23;20015;-75
2022/01/22 13:05:16;;;;;;;36.80;28.10;;;;;;;5.42;100.00;103324.19;6337318;23;20041;-75
2022/01/22 13:07:54;;;;;;;37.47;28.73;;;;;;;5.36;100.00;103330.75;6336845;23;20575;-74
2022/01/22 13:10:32;;;;;;;41.70;29.75;;;;;;;5.36;100.00;103329.06;6410930;23;20051;-74
2022/01/22 13:13:06;;;;;;;42.15;30.17;;;;;;;5.39;100.00;103321.44;6432585;23;20013;-74
2022/01/22 13:15:37;;;;;;;40.47;28.13;;;;;;;5.39;100.00;103323.16;6432838;23;20013;-74
2022/01/22 13:18:09;;;;;;;34.10;28.80;;;;;;;5.43;100.00;103314.75;6432438;23;20075;-75
2022/01/22 13:20:42;;;;;;;35.47;27.80;;;;;;;5.38;100.00;103317.09;6432842;23;19997;-74
2022/01/22 13:23:18;;;;;;;41.38;30.30;;;;;;;5.37;100.00;103320.47;6432554;23;20040;-74
2022/01/22 13:25:51;;;;;;;41.80;29.33;;;;;;;5.32;100.00;103316.78;6432237;23;20001;-74
2022/01/22 13:28:27;;;;;;;38.53;28.60;;;;;;;5.32;100.00;103315.91;6432590;23;20427;-74
2022/01/22 13:31:13;;;;;;;38.70;29.30;;;;;;;5.32;100.00;103327.13;6432559;23;20000;-74
2022/01/22 13:36:55;;;;;;;34.67;28.27;;;;;;;5.34;100.00;103327.22;6433156;23;20064;-74
2022/01/22 13:48:31;;;;;;;37.28;28.92;;;;;;;5.35;100.00;103314.34;6339743;23;20014;-74